createdAt,value
2018-12-04T00:00:49.927Z,1.4
2018-12-04T00:02:49.900Z,3.2
2018-12-04T00:04:50.205Z,3.2
2018-12-04T00:06:50.352Z,2.1
2018-12-04T00:08:50.329Z,2.1
2018-12-04T00:10:50.397Z,3.9
2018-12-04T00:12:50.367Z,2.2
2018-12-04T00:14:50.413Z,2.2
2018-12-04T00:16:49.595Z,2.1
2018-12-04T00:18:49.658Z,2.1
2018-12-04T00:20:49.622Z,2.5
2018-12-04T00:22:49.598Z,2.5
2018-12-04T00:24:49.632Z,3.1
2018-12-04T00:26:49.775Z,3.1
2018-12-04T00:28:49.863Z,3.8
2018-12-04T00:30:49.882Z,2.6
2018-12-04T00:32:49.891Z,3.3
2018-12-04T00:34:50.076Z,3.3
2018-12-04T00:36:50.262Z,2.6
2018-12-04T00:38:50.217Z,2.1
2018-12-04T00:40:50.277Z,3.9
2018-12-04T00:42:50.254Z,3.9
2018-12-04T00:44:50.231Z,1.8
2018-12-04T00:46:49.458Z,2.4
2018-12-04T00:48:49.443Z,3.7
2018-12-04T00:50:50.434Z,2.5
2018-12-04T00:52:49.484Z,2.5
2018-12-04T00:54:49.463Z,2.3
2018-12-04T00:56:49.674Z,2.9
2018-12-04T00:58:49.696Z,1.9
2018-12-04T01:00:49.686Z,3.6
2018-12-04T01:02:49.668Z,1.4
2018-12-04T01:04:50.039Z,1.4
2018-12-04T01:06:50.190Z,2.3
2018-12-04T01:08:50.195Z,1.3
2018-12-04T01:10:50.188Z,2.5
2018-12-04T01:12:50.269Z,1.7
2018-12-04T01:14:50.274Z,1.7
2018-12-04T01:16:49.550Z,1.9
2018-12-04T01:18:49.566Z,1.7
2018-12-04T01:20:49.577Z,1.1
2018-12-04T01:22:49.599Z,1.1
2018-12-04T01:24:49.618Z,1.4
2018-12-04T01:26:49.994Z,1.0
2018-12-04T01:28:49.974Z,2.2
2018-12-04T01:30:49.943Z,1.0
2018-12-04T01:32:49.973Z,2.0
2018-12-04T01:34:50.243Z,2.0
2018-12-04T01:36:50.301Z,1.5
2018-12-04T01:38:50.306Z,2.7
2018-12-04T01:40:50.251Z,3.0
2018-12-04T01:42:50.343Z,3.0
2018-12-04T01:44:50.240Z,2.3
2018-12-04T01:46:49.480Z,3.7
2018-12-04T01:48:49.531Z,3.8
2018-12-04T01:50:49.542Z,2.7
2018-12-04T01:52:49.519Z,2.7
2018-12-04T01:54:49.603Z,2.2
2018-12-04T01:56:49.884Z,3.1
2018-12-04T01:58:49.828Z,4.4
2018-12-04T02:00:49.841Z,3.6
2018-12-04T02:02:49.842Z,3.6
2018-12-04T02:04:50.225Z,4.4
2018-12-04T02:06:50.407Z,5.0
2018-12-04T02:08:50.434Z,5.0
2018-12-04T02:10:50.440Z,4.1
2018-12-04T02:12:50.424Z,4.1
2018-12-04T02:14:49.493Z,5.6
2018-12-04T02:16:49.748Z,5.6
2018-12-04T02:18:49.736Z,3.1
2018-12-04T02:20:49.851Z,3.1
2018-12-04T02:22:49.872Z,5.4
2018-12-04T02:24:49.939Z,5.3
2018-12-04T02:26:50.300Z,5.4
2018-12-04T02:28:50.374Z,6.8
2018-12-04T02:30:49.481Z,6.4
2018-12-04T02:32:49.534Z,6.4
2018-12-04T02:34:50.088Z,6.2
2018-12-04T02:36:50.326Z,5.1
2018-12-04T02:38:50.236Z,6.6
2018-12-04T02:40:50.315Z,6.6
2018-12-04T02:42:50.281Z,4.7
2018-12-04T02:44:50.294Z,5.2
2018-12-04T02:46:49.489Z,5.0
2018-12-04T02:48:49.486Z,5.1
2018-12-04T02:50:49.457Z,5.1
2018-12-04T02:52:50.403Z,4.2
2018-12-04T02:54:50.359Z,6.7
2018-12-04T02:56:49.577Z,5.4
2018-12-04T02:58:49.528Z,4.4
2018-12-04T03:00:49.579Z,4.4
2018-12-04T03:02:49.702Z,5.9
2018-12-04T03:04:50.236Z,4.5
2018-12-04T03:06:49.491Z,6.2
2018-12-04T03:08:49.671Z,6.2
2018-12-04T03:10:49.607Z,5.6
2018-12-04T03:12:49.704Z,4.3
2018-12-04T03:14:49.701Z,4.3
2018-12-04T03:16:49.829Z,5.0
2018-12-04T03:18:49.858Z,5.0
2018-12-04T03:20:49.886Z,3.9
2018-12-04T03:22:49.913Z,4.4
2018-12-04T03:24:49.931Z,3.7
2018-12-04T03:26:50.092Z,4.0
2018-12-04T03:28:50.059Z,4.0
2018-12-04T03:30:50.077Z,5.6
2018-12-04T03:32:50.226Z,4.6
2018-12-04T03:34:49.554Z,4.9
2018-12-04T03:36:49.976Z,4.1
2018-12-04T03:38:49.875Z,4.1
2018-12-04T03:40:49.817Z,2.8
2018-12-04T03:42:49.826Z,3.1
2018-12-04T03:44:49.778Z,3.1
2018-12-04T03:46:49.927Z,3.2
2018-12-04T03:48:49.921Z,2.7
2018-12-04T03:50:49.935Z,3.3
2018-12-04T03:52:49.947Z,3.5
2018-12-04T03:54:49.970Z,4.1
2018-12-04T03:56:50.197Z,4.1
2018-12-04T03:58:50.245Z,3.1
2018-12-04T04:00:50.142Z,2.5
2018-12-04T04:02:50.174Z,3.3
2018-12-04T04:04:49.573Z,3.3
2018-12-04T04:06:49.755Z,2.8
2018-12-04T04:08:49.714Z,2.8
2018-12-04T04:10:49.771Z,2.6
2018-12-04T04:12:49.757Z,2.2
2018-12-04T04:14:49.737Z,2.2
2018-12-04T04:16:49.966Z,2.6
2018-12-04T04:18:49.914Z,2.6
2018-12-04T04:20:49.898Z,1.8
2018-12-04T04:22:49.944Z,3.8
2018-12-04T04:24:49.958Z,2.7
2018-12-04T04:26:50.231Z,2.7
2018-12-04T04:28:50.222Z,4.5
2018-12-04T04:30:50.209Z,1.6
2018-12-04T04:32:50.170Z,1.6
2018-12-04T04:34:49.639Z,1.8
2018-12-04T04:36:49.757Z,1.4
2018-12-04T04:38:49.782Z,2.1
2018-12-04T04:40:49.788Z,3.1
2018-12-04T04:42:49.792Z,3.1
2018-12-04T04:44:49.778Z,2.4
2018-12-04T04:46:49.955Z,2.4
2018-12-04T04:48:49.996Z,1.9
2018-12-04T04:50:49.985Z,1.6
2018-12-04T04:52:50.030Z,1.6
2018-12-04T04:54:50.078Z,1.6
2018-12-04T04:56:50.283Z,3.0
2018-12-04T04:58:50.266Z,1.6
2018-12-04T05:00:50.294Z,2.3
2018-12-04T05:02:50.302Z,2.3
2018-12-04T05:04:49.655Z,2.4
2018-12-04T05:06:49.754Z,2.7
2018-12-04T05:08:49.768Z,2.6
2018-12-04T05:10:49.773Z,2.5
2018-12-04T05:12:49.708Z,2.5
2018-12-04T05:14:49.715Z,2.9
2018-12-04T05:16:49.920Z,2.0
2018-12-04T05:18:49.901Z,2.0
2018-12-04T05:20:49.956Z,1.6
2018-12-04T05:22:49.992Z,1.6
2018-12-04T05:24:50.030Z,2.8
2018-12-04T05:26:49.709Z,1.7
2018-12-04T05:28:49.736Z,2.1
2018-12-04T05:30:49.735Z,2.1
2018-12-04T05:32:49.774Z,2.1
2018-12-04T05:34:50.174Z,2.1
2018-12-04T05:36:50.329Z,2.8
2018-12-04T05:38:50.427Z,1.7
2018-12-04T05:40:49.469Z,1.7
2018-12-04T05:42:49.613Z,2.3
2018-12-04T05:44:49.540Z,2.3
2018-12-04T05:46:49.762Z,1.9
2018-12-04T05:48:49.733Z,1.8
2018-12-04T05:50:49.692Z,2.0
2018-12-04T05:52:49.666Z,2.0
2018-12-04T05:54:49.712Z,3.1
2018-12-04T05:56:49.895Z,4.8
2018-12-04T05:58:49.906Z,2.4
2018-12-04T06:00:49.963Z,2.2
2018-12-04T06:02:49.950Z,2.2
2018-12-04T06:04:50.235Z,1.9
2018-12-04T06:06:49.528Z,2.5
2018-12-04T06:08:49.509Z,2.2
2018-12-04T06:10:49.492Z,2.2
2018-12-04T06:12:49.500Z,3.0
2018-12-04T06:14:49.503Z,3.0
2018-12-04T06:16:49.688Z,2.4
2018-12-04T06:18:49.664Z,3.1
2018-12-04T06:20:49.683Z,3.1
2018-12-04T06:22:49.636Z,2.2
2018-12-04T06:24:49.693Z,3.7
2018-12-04T06:26:49.839Z,2.9
2018-12-04T06:28:49.826Z,2.9
2018-12-04T06:30:49.764Z,2.9
2018-12-04T06:32:49.787Z,5.0
2018-12-04T06:34:50.016Z,5.0
2018-12-04T06:36:49.782Z,3.3
2018-12-04T06:38:49.735Z,3.3
2018-12-04T06:40:49.663Z,4.0
2018-12-04T06:42:49.637Z,4.0
2018-12-04T06:44:49.684Z,3.3
2018-12-04T06:46:49.832Z,2.4
2018-12-04T06:48:49.832Z,2.9
2018-12-04T06:50:49.812Z,2.9
2018-12-04T06:52:49.813Z,3.0
2018-12-04T06:54:49.808Z,1.7
2018-12-04T06:56:50.123Z,2.1
2018-12-04T06:58:50.131Z,2.5
2018-12-04T07:00:50.037Z,2.5
2018-12-04T07:02:49.977Z,2.0
2018-12-04T07:04:50.398Z,4.1
2018-12-04T07:06:49.590Z,2.2
2018-12-04T07:08:49.573Z,2.6
2018-12-04T07:10:49.710Z,2.6
2018-12-04T07:12:50.216Z,3.1
2018-12-04T07:14:50.195Z,3.3
2018-12-04T07:16:49.490Z,3.5
2018-12-04T07:18:49.457Z,3.5
2018-12-04T07:20:49.470Z,2.9
2018-12-04T07:22:50.422Z,5.0
2018-12-04T07:24:49.599Z,2.3
2018-12-04T07:26:49.803Z,2.4
2018-12-04T07:28:49.710Z,2.4
2018-12-04T07:30:49.674Z,2.6
2018-12-04T07:32:49.701Z,2.7
2018-12-04T07:34:50.125Z,3.2
2018-12-04T07:36:50.400Z,3.1
2018-12-04T07:38:50.402Z,3.1
2018-12-04T07:40:49.494Z,4.6
2018-12-04T07:42:49.497Z,3.0
2018-12-04T07:44:49.554Z,3.7
2018-12-04T07:46:49.933Z,3.5
2018-12-04T07:48:49.876Z,3.5
2018-12-04T07:50:49.846Z,3.3
2018-12-04T07:52:49.832Z,3.4
2018-12-04T07:54:49.847Z,3.5
2018-12-04T07:56:49.951Z,3.5
2018-12-04T07:58:49.999Z,3.5
2018-12-04T08:00:50.037Z,4.7
2018-12-04T08:02:50.171Z,3.1
2018-12-04T08:04:50.311Z,3.1
2018-12-04T08:06:49.565Z,3.2
2018-12-04T08:08:49.673Z,3.2
2018-12-04T08:10:49.608Z,2.9
2018-12-04T08:12:49.610Z,3.4
2018-12-04T08:14:49.643Z,3.4
2018-12-04T08:16:49.815Z,3.2
2018-12-04T08:18:49.817Z,2.9
2018-12-04T08:20:49.841Z,2.9
2018-12-04T08:22:49.878Z,4.9
2018-12-04T08:24:49.819Z,4.9
2018-12-04T08:26:49.926Z,2.6
2018-12-04T08:28:49.912Z,3.0
2018-12-04T08:30:49.953Z,3.0
2018-12-04T08:32:49.929Z,2.2
2018-12-04T08:34:50.201Z,1.4
2018-12-04T08:36:50.360Z,1.4
2018-12-04T08:38:50.358Z,1.5
2018-12-04T08:40:50.414Z,2.7
2018-12-04T08:42:49.528Z,2.7
2018-12-04T08:44:49.461Z,1.0
2018-12-04T08:46:49.721Z,1.0
2018-12-04T08:48:49.671Z,2.0
2018-12-04T08:50:49.698Z,1.6
2018-12-04T08:52:49.817Z,1.8
2018-12-04T08:54:49.815Z,1.8
2018-12-04T08:56:50.047Z,2.0
2018-12-04T08:58:50.080Z,2.8
2018-12-04T09:00:50.097Z,3.3
2018-12-04T09:02:50.081Z,3.3
2018-12-04T09:04:49.570Z,5.9
2018-12-04T09:06:49.910Z,3.1
2018-12-04T09:08:50.219Z,1.7
2018-12-04T09:10:49.474Z,2.8
2018-12-04T09:12:49.628Z,2.8
2018-12-04T09:14:49.594Z,2.0
2018-12-04T09:16:49.847Z,1.5
2018-12-04T09:18:49.870Z,2.5
2018-12-04T09:20:50.017Z,1.7
2018-12-04T09:22:50.084Z,1.7
2018-12-04T09:24:49.463Z,1.2
2018-12-04T09:26:49.739Z,1.8
2018-12-04T09:28:49.878Z,1.8
2018-12-04T09:30:50.090Z,1.8
2018-12-04T09:32:50.073Z,3.7
2018-12-04T09:34:50.267Z,1.6
2018-12-04T09:36:49.454Z,2.9
2018-12-04T09:38:50.380Z,2.5
2018-12-04T09:40:50.366Z,2.5
2018-12-04T09:42:50.323Z,3.2
2018-12-04T09:44:50.267Z,2.1
2018-12-04T09:46:49.502Z,2.8
2018-12-04T09:48:49.502Z,2.8
2018-12-04T09:50:49.461Z,2.0
2018-12-04T09:52:49.510Z,2.0
2018-12-04T09:54:49.550Z,1.3
2018-12-04T09:56:49.856Z,3.0
2018-12-04T09:58:49.886Z,2.4
2018-12-04T10:00:49.824Z,2.4
2018-12-04T10:02:49.784Z,4.4
2018-12-04T10:04:49.988Z,11.1
2018-12-04T10:06:50.243Z,1.7
2018-12-04T10:08:50.218Z,2.5
2018-12-04T10:10:50.201Z,3.8
2018-12-04T10:12:50.278Z,3.8
2018-12-04T10:14:50.402Z,3.9
2018-12-04T10:16:49.681Z,4.0
2018-12-04T10:18:49.676Z,4.0
2018-12-04T10:20:49.666Z,12.0
2018-12-04T10:22:49.654Z,12.0
2018-12-04T10:24:49.699Z,4.2
2018-12-04T10:26:49.804Z,1.7
2018-12-04T10:28:49.800Z,1.7
2018-12-04T10:30:49.794Z,1.1
2018-12-04T10:32:49.903Z,4.1
2018-12-04T10:34:50.119Z,3.4
2018-12-04T10:36:50.295Z,2.3
2018-12-04T10:38:50.231Z,2.3
2018-12-04T10:40:50.228Z,2.3
2018-12-04T10:42:50.097Z,2.1
2018-12-04T10:44:50.044Z,2.1
2018-12-04T10:46:50.222Z,1.9
2018-12-04T10:48:50.212Z,1.8
2018-12-04T10:50:50.182Z,1.4
2018-12-04T10:52:50.301Z,1.0
2018-12-04T10:54:50.302Z,2.1
2018-12-04T10:56:49.468Z,1.7
2018-12-04T10:58:49.629Z,1.4
2018-12-04T11:00:49.632Z,1.4
2018-12-04T11:02:50.015Z,2.4
2018-12-04T11:04:50.381Z,2.3
2018-12-04T11:06:49.657Z,1.2
2018-12-04T11:08:49.732Z,1.2
2018-12-04T11:10:49.759Z,1.1
2018-12-04T11:12:49.788Z,2.1
2018-12-04T11:14:49.785Z,2.2
2018-12-04T11:16:50.061Z,2.2
2018-12-04T11:18:50.095Z,2.6
2018-12-04T11:20:50.111Z,1.1
2018-12-04T11:22:50.154Z,1.4
2018-12-04T11:24:50.119Z,1.8
2018-12-04T11:26:50.273Z,1.8
2018-12-04T11:28:50.288Z,1.9
2018-12-04T11:30:50.217Z,1.9
2018-12-04T11:32:50.298Z,2.3
2018-12-04T11:34:49.738Z,1.4
2018-12-04T11:36:49.883Z,1.4
2018-12-04T11:38:49.879Z,2.0
2018-12-04T11:40:49.946Z,2.5
2018-12-04T11:42:50.057Z,1.9
2018-12-04T11:44:50.164Z,2.7
2018-12-04T11:46:49.464Z,2.4
2018-12-04T11:48:50.364Z,2.4
2018-12-04T11:50:50.384Z,2.8
2018-12-04T11:52:50.371Z,2.9
2018-12-04T11:54:50.322Z,2.6
2018-12-04T11:56:49.486Z,3.4
2018-12-04T11:58:50.399Z,3.4
2018-12-04T12:00:50.462Z,2.5
2018-12-04T12:02:49.420Z,1.9
2018-12-04T12:04:49.672Z,1.9
2018-12-04T12:06:49.859Z,2.2
2018-12-04T12:08:49.817Z,1.5
2018-12-04T12:10:49.835Z,3.2
2018-12-04T12:12:49.855Z,3.2
2018-12-04T12:14:49.871Z,3.2
2018-12-04T12:16:50.171Z,2.6
2018-12-04T12:18:50.335Z,4.1
2018-12-04T12:20:49.466Z,2.9
2018-12-04T12:22:49.604Z,2.9
2018-12-04T12:24:49.792Z,2.0
2018-12-04T12:26:50.175Z,3.9
2018-12-04T12:28:50.402Z,3.9
2018-12-04T12:30:49.558Z,2.9
2018-12-04T12:32:49.646Z,3.6
2018-12-04T12:34:50.084Z,3.7
2018-12-04T12:36:49.434Z,3.7
2018-12-04T12:38:49.624Z,3.7
2018-12-04T12:40:49.659Z,3.1
2018-12-04T12:42:49.596Z,3.1
2018-12-04T12:44:49.626Z,3.1
2018-12-04T12:46:49.823Z,2.7
2018-12-04T12:48:49.793Z,3.3
2018-12-04T12:50:49.768Z,5.7
2018-12-04T12:52:49.772Z,4.4
2018-12-04T12:54:49.763Z,4.4
2018-12-04T12:56:50.013Z,2.4
2018-12-04T12:58:50.394Z,2.6
2018-12-04T13:00:50.408Z,2.3
2018-12-04T13:02:50.363Z,2.5
2018-12-04T13:04:49.614Z,2.5
2018-12-04T13:06:49.775Z,2.7
2018-12-04T13:08:49.759Z,2.7
2018-12-04T13:10:49.723Z,4.9
2018-12-04T13:12:49.757Z,4.9
2018-12-04T13:14:49.759Z,3.6
2018-12-04T13:16:49.843Z,3.0
2018-12-04T13:18:49.844Z,3.0
2018-12-04T13:20:50.070Z,4.7
2018-12-04T13:22:50.318Z,4.7
2018-12-04T13:24:50.218Z,3.7
2018-12-04T13:26:50.420Z,4.3
2018-12-04T13:28:50.311Z,4.3
2018-12-04T13:30:50.389Z,4.5
2018-12-04T13:32:49.871Z,4.5
2018-12-04T13:34:50.167Z,5.2
2018-12-04T13:36:50.379Z,3.0
2018-12-04T13:38:49.511Z,3.0
2018-12-04T13:40:49.559Z,5.0
2018-12-04T13:42:49.543Z,6.6
2018-12-04T13:44:49.573Z,3.9
2018-12-04T13:46:49.822Z,5.4
2018-12-04T13:48:49.830Z,5.4
2018-12-04T13:50:49.874Z,6.6
2018-12-04T13:52:49.878Z,5.6
2018-12-04T13:54:49.999Z,5.6
2018-12-04T13:56:50.148Z,4.6
2018-12-04T13:58:50.157Z,4.3
2018-12-04T14:00:50.192Z,6.6
2018-12-04T14:02:50.221Z,3.3
2018-12-04T14:04:49.731Z,3.3
2018-12-04T14:06:49.932Z,3.3
2018-12-04T14:08:49.985Z,3.7
2018-12-04T14:10:50.025Z,2.9
2018-12-04T14:12:50.150Z,2.9
2018-12-04T14:14:50.267Z,9.8
2018-12-04T14:16:50.356Z,5.6
2018-12-04T14:18:50.446Z,5.6
2018-12-04T14:20:49.583Z,6.6
2018-12-04T14:22:49.613Z,5.0
2018-12-04T14:24:49.613Z,5.5
2018-12-04T14:26:49.804Z,7.6
2018-12-04T14:28:49.786Z,7.6
2018-12-04T14:30:49.868Z,4.6
2018-12-04T14:32:49.926Z,4.6
2018-12-04T14:34:50.372Z,3.1
2018-12-04T14:36:49.519Z,3.1
2018-12-04T14:38:49.527Z,5.2
2018-12-04T14:40:49.572Z,4.8
2018-12-04T14:42:49.662Z,4.8
2018-12-04T14:44:49.683Z,5.9
2018-12-04T14:46:50.067Z,8.9
2018-12-04T14:48:50.278Z,5.0
2018-12-04T14:50:50.254Z,5.0
2018-12-04T14:52:50.284Z,7.4
2018-12-04T14:54:50.311Z,5.8
2018-12-04T14:56:49.661Z,4.8
2018-12-04T14:58:50.827Z,4.8
2018-12-04T15:00:50.064Z,5.0
2018-12-04T15:02:50.115Z,5.5
2018-12-04T15:04:49.594Z,5.2
2018-12-04T15:06:49.788Z,5.2
2018-12-04T15:08:50.081Z,6.9
2018-12-04T15:10:50.105Z,5.7
2018-12-04T15:12:50.219Z,4.1
2018-12-04T15:14:50.284Z,5.6
2018-12-04T15:16:54.935Z,5.6
2018-12-04T15:18:50.386Z,9.5
2018-12-04T15:20:49.439Z,7.2
2018-12-04T15:22:49.570Z,4.7
2018-12-04T15:24:49.626Z,7.5
2018-12-04T15:26:49.920Z,7.5
2018-12-04T15:28:50.056Z,7.3
2018-12-04T15:30:50.110Z,5.6
2018-12-04T15:32:50.154Z,8.2
2018-12-04T15:34:49.626Z,7.0
2018-12-04T15:36:56.201Z,7.0
2018-12-04T15:38:49.855Z,4.1
2018-12-04T15:40:49.908Z,4.1
2018-12-04T15:42:49.966Z,6.3
2018-12-04T15:44:49.971Z,7.9
2018-12-04T15:46:50.280Z,7.9
2018-12-04T15:48:50.379Z,6.1
2018-12-04T15:50:50.423Z,7.2
2018-12-04T15:52:50.469Z,7.2
2018-12-04T15:54:49.594Z,9.4
2018-12-04T15:56:49.848Z,7.0
2018-12-04T15:58:49.992Z,9.9
2018-12-04T16:00:50.056Z,7.2
2018-12-04T16:02:50.086Z,6.5
2018-12-04T16:04:49.510Z,6.5
2018-12-04T16:06:49.597Z,6.1
2018-12-04T16:08:49.596Z,6.1
2018-12-04T16:10:49.714Z,6.1
2018-12-04T16:12:49.784Z,10.6
2018-12-04T16:14:49.720Z,8.3
2018-12-04T16:16:49.870Z,8.3
2018-12-04T16:18:49.850Z,10.0
2018-12-04T16:20:49.816Z,6.6
2018-12-04T16:22:49.788Z,11.3
2018-12-04T16:24:49.726Z,11.3
2018-12-04T16:26:49.911Z,7.9
2018-12-04T16:28:49.841Z,7.9
2018-12-04T16:30:49.849Z,12.7
2018-12-04T16:32:49.911Z,12.7
2018-12-04T16:34:50.166Z,8.7
2018-12-04T16:36:49.470Z,8.3
2018-12-04T16:38:49.533Z,8.9
2018-12-04T16:40:49.539Z,6.5
2018-12-04T16:42:49.525Z,6.5
2018-12-04T16:44:49.615Z,10.8
2018-12-04T16:46:49.851Z,10.8
2018-12-04T16:48:49.921Z,10.5
2018-12-04T16:50:49.963Z,9.0
2018-12-04T16:52:49.935Z,9.0
2018-12-04T16:54:49.915Z,10.9
2018-12-04T16:56:50.033Z,10.9
2018-12-04T16:58:50.049Z,8.6
2018-12-04T17:00:50.090Z,14.0
2018-12-04T17:02:50.097Z,13.1
2018-12-04T17:04:49.502Z,13.1
2018-12-04T17:06:49.715Z,9.3
2018-12-04T17:08:49.704Z,13.9
2018-12-04T17:10:49.646Z,13.6
2018-12-04T17:12:49.639Z,13.6
2018-12-04T17:14:49.618Z,12.0
2018-12-04T17:16:49.916Z,10.4
2018-12-04T17:18:49.878Z,10.8
2018-12-04T17:20:50.230Z,9.7
2018-12-04T17:22:50.247Z,9.7
2018-12-04T17:24:50.166Z,8.4
2018-12-04T17:26:49.519Z,8.6
2018-12-04T17:28:49.454Z,12.8
2018-12-04T17:30:49.566Z,12.7
2018-12-04T17:32:49.730Z,12.7
2018-12-04T17:34:50.158Z,11.6
2018-12-04T17:36:50.318Z,15.4
2018-12-04T17:38:50.277Z,15.4
2018-12-04T17:40:50.329Z,9.2
2018-12-04T17:42:50.328Z,9.2
2018-12-04T17:44:50.309Z,14.4
2018-12-04T17:46:49.550Z,14.4
2018-12-04T17:48:49.522Z,14.4
2018-12-04T17:50:49.558Z,11.5
2018-12-04T17:52:49.669Z,11.0
2018-12-04T17:54:49.701Z,10.3
2018-12-04T17:56:49.963Z,9.5
2018-12-04T17:58:50.070Z,11.4
2018-12-04T18:00:50.027Z,11.4
2018-12-04T18:02:50.117Z,9.7
2018-12-04T18:04:50.405Z,13.0
2018-12-04T18:06:49.684Z,11.5
2018-12-04T18:08:49.785Z,14.7
2018-12-04T18:10:49.798Z,14.7
2018-12-04T18:12:49.748Z,14.9
2018-12-04T18:14:49.776Z,13.2
2018-12-04T18:16:49.976Z,9.9
2018-12-04T18:18:49.970Z,9.9
2018-12-04T18:20:49.965Z,12.8
2018-12-04T18:22:49.921Z,11.7
2018-12-04T18:24:49.955Z,13.3
2018-12-04T18:26:50.193Z,14.8
2018-12-04T18:28:50.193Z,14.4
2018-12-04T18:30:50.169Z,15.6
2018-12-04T18:32:50.342Z,15.6
2018-12-04T18:34:49.889Z,10.5
2018-12-04T18:36:50.010Z,18.3
2018-12-04T18:38:49.973Z,14.2
2018-12-04T18:40:49.993Z,14.2
2018-12-04T18:42:50.014Z,14.1
2018-12-04T18:44:49.994Z,12.9
2018-12-04T18:46:50.320Z,12.3
2018-12-04T18:48:50.262Z,12.3
2018-12-04T18:50:50.306Z,15.3
2018-12-04T18:52:50.244Z,10.4
2018-12-04T18:54:50.206Z,10.0
2018-12-04T18:56:50.382Z,13.0
2018-12-04T18:58:50.278Z,13.0
2018-12-04T19:00:50.397Z,12.0
2018-12-04T19:02:49.525Z,9.9
2018-12-04T19:04:49.771Z,15.2
2018-12-04T19:06:49.888Z,15.2
2018-12-04T19:08:49.870Z,12.0
2018-12-04T19:10:49.943Z,13.7
2018-12-04T19:12:49.943Z,13.7
2018-12-04T19:14:49.959Z,12.3
2018-12-04T19:16:50.091Z,12.3
2018-12-04T19:18:50.077Z,9.2
2018-12-04T19:20:50.135Z,10.3
2018-12-04T19:22:50.221Z,12.3
2018-12-04T19:24:50.266Z,12.3
2018-12-04T19:26:49.519Z,13.0
2018-12-04T19:28:49.462Z,11.7
2018-12-04T19:30:49.576Z,11.7
2018-12-04T19:32:49.537Z,11.7
2018-12-04T19:34:50.010Z,12.1
2018-12-04T19:36:50.198Z,12.1
2018-12-04T19:38:50.189Z,11.5
2018-12-04T19:40:50.241Z,15.3
2018-12-04T19:42:50.138Z,9.8
2018-12-04T19:44:50.139Z,11.6
2018-12-04T19:46:50.226Z,11.6
2018-12-04T19:48:50.145Z,8.9
2018-12-04T19:50:50.148Z,12.1
2018-12-04T19:52:50.000Z,12.1
2018-12-04T19:54:49.822Z,12.2
2018-12-04T19:56:49.806Z,9.8
2018-12-04T19:58:49.636Z,11.7
2018-12-04T20:00:49.446Z,12.8
2018-12-04T20:02:49.449Z,9.4
2018-12-04T20:04:49.543Z,9.4
2018-12-04T20:06:49.710Z,13.1
2018-12-04T20:08:52.103Z,13.1
2018-12-04T20:10:50.077Z,16.3
2018-12-04T20:12:49.912Z,16.1
2018-12-04T20:14:49.708Z,16.1
2018-12-04T20:16:49.872Z,13.3
2018-12-04T20:18:49.717Z,13.6
2018-12-04T20:20:49.612Z,10.9
2018-12-04T20:22:50.421Z,10.9
2018-12-04T20:24:50.210Z,11.4
2018-12-04T20:26:50.284Z,12.0
2018-12-04T20:28:50.150Z,10.5
2018-12-04T20:30:49.990Z,10.6
2018-12-04T20:32:49.866Z,10.9
2018-12-04T20:34:49.868Z,10.9
2018-12-04T20:36:49.991Z,11.5
2018-12-04T20:38:49.769Z,10.6
2018-12-04T20:40:49.610Z,10.9
2018-12-04T20:42:50.391Z,9.0
2018-12-04T20:44:50.271Z,9.0
2018-12-04T20:46:50.383Z,12.2
2018-12-04T20:48:50.173Z,12.7
2018-12-04T20:50:50.065Z,11.3
2018-12-04T20:52:49.916Z,11.3
2018-12-04T20:54:49.738Z,12.6
2018-12-04T20:56:49.919Z,11.8
2018-12-04T20:58:49.723Z,11.4
2018-12-04T21:00:49.518Z,12.8
2018-12-04T21:02:50.354Z,12.8
2018-12-04T21:04:49.703Z,13.9
2018-12-04T21:06:49.893Z,13.9
2018-12-04T21:08:49.717Z,13.4
2018-12-04T21:10:49.628Z,13.0
2018-12-04T21:12:49.518Z,13.0
2018-12-04T21:14:50.326Z,12.2
2018-12-04T21:16:50.176Z,19.5
2018-12-04T21:18:49.979Z,19.5
2018-12-04T21:20:49.827Z,15.6
2018-12-04T21:22:49.719Z,13.6
2018-12-04T21:24:49.479Z,13.6
2018-12-04T21:26:49.554Z,17.8
2018-12-04T21:28:50.414Z,16.9
2018-12-04T21:30:50.281Z,17.6
2018-12-04T21:32:50.052Z,17.6
2018-12-04T21:34:50.376Z,12.4
2018-12-04T21:36:50.428Z,17.2
2018-12-04T21:38:50.252Z,15.9
2018-12-04T21:40:50.065Z,15.2
2018-12-04T21:42:49.926Z,15.2
2018-12-04T21:44:49.695Z,13.4
2018-12-04T21:46:49.926Z,13.8
2018-12-04T21:48:49.772Z,10.6
2018-12-04T21:50:49.639Z,13.1
2018-12-04T21:52:49.453Z,13.1
2018-12-04T21:54:50.360Z,13.0
2018-12-04T21:56:50.273Z,15.6
2018-12-04T21:58:50.192Z,13.0
2018-12-04T22:00:49.961Z,13.0
2018-12-04T22:02:49.803Z,14.7
2018-12-04T22:04:50.079Z,19.3
2018-12-04T22:06:50.187Z,18.0
2018-12-04T22:08:50.012Z,18.1
2018-12-04T22:10:49.837Z,18.1
2018-12-04T22:12:49.639Z,14.4
2018-12-04T22:14:49.581Z,17.7
2018-12-04T22:16:49.587Z,16.8
2018-12-04T22:18:50.444Z,13.8
2018-12-04T22:20:50.296Z,13.8
2018-12-04T22:22:50.140Z,13.0
2018-12-04T22:24:49.941Z,12.6
2018-12-04T22:26:49.972Z,15.4
2018-12-04T22:28:49.790Z,15.9
2018-12-04T22:30:49.567Z,15.9
2018-12-04T22:32:49.511Z,16.6
2018-12-04T22:34:49.861Z,12.7
2018-12-04T22:36:49.870Z,12.7
2018-12-04T22:38:49.679Z,14.9
2018-12-04T22:40:49.526Z,14.9
2018-12-04T22:42:49.521Z,17.2
2018-12-04T22:44:50.311Z,17.2
2018-12-04T22:46:50.400Z,15.0
2018-12-04T22:48:50.227Z,15.0
2018-12-04T22:50:50.068Z,13.5
2018-12-04T22:52:49.936Z,16.9
2018-12-04T22:54:49.791Z,16.9
2018-12-04T22:56:49.889Z,16.6
2018-12-04T22:58:49.745Z,16.6
2018-12-04T23:00:49.553Z,19.2
2018-12-04T23:02:50.411Z,16.0
2018-12-04T23:04:49.701Z,16.3
2018-12-04T23:06:49.816Z,16.7
2018-12-04T23:08:49.593Z,16.7
2018-12-04T23:10:49.477Z,14.3
2018-12-04T23:12:50.259Z,17.7
2018-12-04T23:14:50.124Z,17.9
2018-12-04T23:16:50.299Z,15.1
2018-12-04T23:18:50.139Z,15.1
2018-12-04T23:20:50.201Z,16.6
2018-12-04T23:22:50.126Z,17.4
2018-12-04T23:24:49.883Z,17.4
2018-12-04T23:26:49.884Z,17.8
2018-12-04T23:28:49.649Z,14.4
2018-12-04T23:30:49.454Z,14.8
2018-12-04T23:32:50.211Z,18.6
2018-12-04T23:34:49.445Z,18.6
2018-12-04T23:36:49.474Z,16.2
2018-12-04T23:38:50.335Z,15.5
2018-12-04T23:40:50.136Z,15.2
2018-12-04T23:42:50.057Z,15.2
2018-12-04T23:44:49.926Z,18.6
2018-12-04T23:46:49.901Z,20.8
2018-12-04T23:48:49.753Z,20.8
2018-12-04T23:50:49.557Z,18.7
2018-12-04T23:52:49.454Z,18.4
2018-12-04T23:54:51.334Z,18.4
2018-12-04T23:56:49.532Z,14.3
2018-12-04T23:58:50.422Z,15.8
